Bemidji, MN

3:38 AM CDT on August 01, 2014 (GMT -0500)
Fosston Municipal (KFSE) Elev 1276 ft | 47.59 °N, 95.77 °W | Change Station

Current weather conditions updated 3 minutes ago

Mostly Cloudy
Mostly Cloudy
57 °F
Feels Like 57 °F
N
0
Wind Variable Wind from North

Today is forecast to be nearly the same temperature as yesterday.

Today
High -- | Low -- °F
--% Chance of Precip.
Yesterday
High -- | Low -- °F
Precip. -- in
5:57 AM 8:53 PM
Waxing Crescent, 25% visible
Pressure 30.04 in
Visibility 3.0 miles
Clouds Scattered Clouds 5500 ft
Scattered Clouds 7500 ft
Mostly Cloudy 11000 ft
Dew Point 55 °F
Humidity 94%
Rainfall 0.00 in
Snow Depth Not available.
UV 0 out of 12
Pollen 7.20 out of 12
Air Quality Not available.
Flu Activity Not available.
METAR KFSE 010835Z AUTO 00000KT 3SM BR SCT055 SCT075 BKN110 14/13 A3004 RMK AO2

More Conditions Fewer Conditions

Pressure 30.04 in
Visibility 3.0 miles
Clouds Scattered Clouds 5500 ft
Scattered Clouds 7500 ft
Mostly Cloudy 11000 ft
Dew Point 55 °F
Humidity 94%
Rainfall 0.00 in
Snow Depth Not available.
UV 0 out of 12
Pollen 7.20 out of 12
Air Quality Not available.
Flu Activity Not available.
METAR KFSE 010835Z AUTO 00000KT 3SM BR SCT055 SCT075 BKN110 14/13 A3004 RMK AO2

More Conditions Fewer Conditions

10-Day Weather Forecast

Almanac

Astronomy

Aug. 01, 2014 Rise Set
Actual Time 5:57 AM CDT 8:53 PM CDT
Civil Twilight 5:21 AM CDT 9:29 PM CDT
Nautical Twilight 4:34 AM CDT 10:15 PM CDT
Astronomical Twilight 3:38 AM CDT 11:10 PM CDT
Moon 11:48 AM CDT 11:10 PM CDT
Length of Visible Light 16h 08m
Length of Day
14h 56m
Tomorrow will be 2m 41s shorter.
Waxing Crescent, 25% of the Moon is Illuminated
Today
Waxing Crescent
Aug 3
First Quarter
Aug 10
Full
Aug 17
Last Quarter
Aug 25
New

Today's Extremes

State Highs State Lows

Community

WunderPhotos

Upload Photos

1,739,521 photos uploaded!

Nearby

Snow Depth

Station Depth Elevation
No new snow has been reported.

Earthquake Activity

City Distance Mag. Time & Date
No recent earthquake activity has been reported nearby.
Minimum magnitude displayed is 2.5.

Coastal Water Temperatures

Place Temperature
No Stations Reporting

Nearby Weather Stations

Station Location Temp. Dew Point Humidity Wind Precip. Elev Updated Type
Bemidji State University - Dept of Geogr, Bemidji, MN 60.7 °F 58 °F 92% NNW  at  0.0 mph 0.00 in / hr 1352 ft 3:38 AM CDT Rapid Fire
Grange Rd, Bemidji, MN 53.1 °F 52 °F 98% WNW  at  0.0 mph 0.00 in / hr 1417 ft 3:35 AM CDT Rapid Fire
Turtle River TWP, Bemidji, MN 58.3 °F 58 °F 99% NE  at  2.2 mph 0.00 in / hr 1379 ft 3:38 AM CDT Rapid Fire
HADS MISSISSIPPI RIVER NEAR BEMIDJI 4 MN, Wilton, MN 57 °F - - North  at  - 0.00 in / hr 1313 ft 2:30 AM CDT MADIS
Long Lake, Bemidji, MN 54.3 °F 52 °F 93% NW  at  0.0 mph 0.00 in / hr 1367 ft 3:38 AM CDT Rapid Fire
RAWS CASS LAKE MN, Cass Lake, MN 55 °F 54 °F 96% North  at  0 mph 0.00 in / hr 1299 ft 3:01 AM CDT MADIS

Show More Stations Show Fewer Stations